createdAt,value
2022-10-20T00:03:55.170Z,6.31
2022-10-20T00:08:57.946Z,6.29
2022-10-20T00:14:00.421Z,6.23
2022-10-20T00:19:02.065Z,6.19
2022-10-20T00:24:03.870Z,6.14
2022-10-20T00:29:05.617Z,6.09
2022-10-20T00:34:07.310Z,6.02
2022-10-20T00:39:08.969Z,6.02
2022-10-20T00:44:46.856Z,6.03
2022-10-20T00:49:48.673Z,5.97
2022-10-20T00:54:50.309Z,5.94
2022-10-20T00:59:52.005Z,5.95
2022-10-20T01:04:53.687Z,5.88
2022-10-20T01:09:55.690Z,5.88
2022-10-20T01:15:35.041Z,5.84
2022-10-20T01:21:05.096Z,5.82
2022-10-20T01:26:28.416Z,5.77
2022-10-20T01:31:34.062Z,5.72
2022-10-20T01:36:47.735Z,5.72
2022-10-20T01:41:51.248Z,5.68
2022-10-20T01:46:52.911Z,5.71
2022-10-20T01:51:55.106Z,5.70
2022-10-20T01:57:02.020Z,5.67
2022-10-20T02:02:28.016Z,5.65
2022-10-20T02:07:30.186Z,5.62
2022-10-20T02:12:34.937Z,5.61
2022-10-20T02:17:37.194Z,5.61
2022-10-20T02:22:39.661Z,5.64
2022-10-20T02:27:43.360Z,5.57
2022-10-20T02:32:49.329Z,5.56
2022-10-20T02:37:50.998Z,5.60
2022-10-20T02:42:52.726Z,5.57
2022-10-20T02:47:54.393Z,5.52
2022-10-20T02:52:56.061Z,5.50
2022-10-20T02:57:57.767Z,5.52
2022-10-20T03:02:59.438Z,5.47
2022-10-20T03:08:01.081Z,5.44
2022-10-20T03:13:03.011Z,5.42
2022-10-20T03:18:04.878Z,5.40
2022-10-20T03:23:06.542Z,5.34
2022-10-20T03:28:08.167Z,5.30
2022-10-20T03:33:09.811Z,5.26
2022-10-20T03:38:11.480Z,5.23
2022-10-20T03:43:15.228Z,5.26
2022-10-20T03:48:16.942Z,5.25
2022-10-20T03:53:18.683Z,5.24
2022-10-20T03:58:20.415Z,5.25
2022-10-20T04:03:22.037Z,5.24
2022-10-20T04:08:23.696Z,5.21
2022-10-20T04:13:25.446Z,5.22
2022-10-20T04:18:27.113Z,5.19
2022-10-20T04:23:28.781Z,5.13
2022-10-20T04:28:30.476Z,5.17
2022-10-20T04:33:32.148Z,5.14
2022-10-20T04:38:34.074Z,5.14
2022-10-20T04:43:35.725Z,5.12
2022-10-20T04:48:37.690Z,5.14
2022-10-20T04:53:39.436Z,5.12
2022-10-20T04:58:41.059Z,5.15
2022-10-20T05:03:42.743Z,5.13
2022-10-20T05:08:46.495Z,5.10
2022-10-20T05:13:48.306Z,5.11
2022-10-20T05:18:52.226Z,5.07
2022-10-20T05:23:57.829Z,5.00
2022-10-20T05:28:59.562Z,4.96
2022-10-20T05:34:01.190Z,4.94
2022-10-20T05:39:02.906Z,4.88
2022-10-20T05:44:05.239Z,4.83
2022-10-20T05:49:07.302Z,4.85
2022-10-20T05:54:10.543Z,4.88
2022-10-20T05:59:12.242Z,4.90
2022-10-20T06:04:19.202Z,4.93
2022-10-20T06:09:21.181Z,4.92
2022-10-20T06:14:22.927Z,4.95
2022-10-20T06:19:25.045Z,5.01
2022-10-20T06:24:26.677Z,5.07
2022-10-20T06:29:28.391Z,5.06
2022-10-20T06:34:30.242Z,5.09
2022-10-20T06:39:31.965Z,5.19
2022-10-20T06:44:33.624Z,5.21
2022-10-20T06:49:35.293Z,5.25
2022-10-20T06:54:36.973Z,5.37
2022-10-20T06:59:38.767Z,5.47
2022-10-20T07:04:40.479Z,5.53
2022-10-20T07:09:42.153Z,5.63
2022-10-20T07:14:43.800Z,5.66
2022-10-20T07:19:45.494Z,5.80
2022-10-20T07:24:47.166Z,5.86
2022-10-20T07:29:48.787Z,6.02
2022-10-20T07:34:50.434Z,6.15
2022-10-20T07:39:52.111Z,6.24
2022-10-20T07:44:53.766Z,6.36
2022-10-20T07:49:55.426Z,6.43
2022-10-20T07:55:06.411Z,6.55
2022-10-20T08:00:19.278Z,6.64
2022-10-20T08:05:21.016Z,6.77
2022-10-20T08:10:22.756Z,6.90
2022-10-20T08:15:24.486Z,7.05
2022-10-20T08:20:30.625Z,7.15
2022-10-20T08:25:33.243Z,7.26
2022-10-20T08:30:37.764Z,7.40
2022-10-20T08:35:39.415Z,7.58
2022-10-20T08:40:41.837Z,7.73
2022-10-20T08:45:43.651Z,7.90
2022-10-20T08:50:46.459Z,8.00
2022-10-20T08:55:48.204Z,8.11
2022-10-20T09:00:55.417Z,8.23
2022-10-20T09:06:01.688Z,8.36
2022-10-20T09:11:03.897Z,8.46
2022-10-20T09:16:40.421Z,8.58
2022-10-20T09:21:45.038Z,8.74
2022-10-20T09:26:59.054Z,8.85
2022-10-20T09:32:10.499Z,9.02
2022-10-20T09:37:22.734Z,9.21
2022-10-20T09:42:28.760Z,9.34
2022-10-20T09:47:30.466Z,9.46
2022-10-20T09:52:35.442Z,9.55
2022-10-20T09:57:37.422Z,9.67
2022-10-20T10:02:39.330Z,9.77
2022-10-20T10:07:41.090Z,9.88
2022-10-20T10:12:51.154Z,10.01
2022-10-20T10:17:52.873Z,10.15
2022-10-20T10:23:11.982Z,10.24
2022-10-20T10:28:36.394Z,10.39
2022-10-20T10:33:38.058Z,10.52
2022-10-20T10:38:39.705Z,10.67
2022-10-20T10:44:15.728Z,10.83
2022-10-20T10:49:44.712Z,11.05
2022-10-20T10:55:21.187Z,11.25
2022-10-20T11:01:07.694Z,11.51
2022-10-20T11:06:24.092Z,11.71
2022-10-20T11:12:05.638Z,11.84
2022-10-20T11:17:29.044Z,11.95
2022-10-20T11:22:30.740Z,12.04
2022-10-20T11:27:36.752Z,12.13
2022-10-20T11:33:14.817Z,12.27
2022-10-20T11:38:21.304Z,12.34
2022-10-20T11:43:29.182Z,12.40
2022-10-20T11:48:36.314Z,12.59
2022-10-20T11:54:09.909Z,12.82
2022-10-20T11:59:30.341Z,12.85
2022-10-20T12:04:44.715Z,12.97
2022-10-20T12:09:52.541Z,13.50
2022-10-20T12:15:01.561Z,13.91
2022-10-20T12:20:38.613Z,14.23
2022-10-20T12:25:41.240Z,14.63
2022-10-20T12:30:43.943Z,14.96
2022-10-20T12:35:59.121Z,15.32
2022-10-20T12:41:00.862Z,15.56
2022-10-20T12:46:12.544Z,15.75
2022-10-20T12:51:23.568Z,15.86
2022-10-20T12:56:25.266Z,15.95
2022-10-20T13:01:28.509Z,16.05
2022-10-20T13:06:32.834Z,16.06
2022-10-20T13:11:37.697Z,16.15
2022-10-20T13:16:40.898Z,16.07
2022-10-20T13:21:46.165Z,16.20
2022-10-20T13:26:56.144Z,16.39
2022-10-20T13:32:33.837Z,16.66
2022-10-20T13:38:00.229Z,16.73
2022-10-20T13:43:39.396Z,16.73
2022-10-20T13:48:54.321Z,16.51
2022-10-20T13:53:57.482Z,16.25
2022-10-20T13:59:18.855Z,16.01
2022-10-20T14:04:34.048Z,15.76
2022-10-20T14:09:35.695Z,15.60
2022-10-20T14:14:37.373Z,15.43
2022-10-20T14:19:40.407Z,15.18
2022-10-20T14:24:45.548Z,15.00
2022-10-20T14:29:47.265Z,14.78
2022-10-20T14:34:58.112Z,14.58
2022-10-20T14:40:04.404Z,14.41
2022-10-20T14:45:06.860Z,14.24
2022-10-20T14:50:19.718Z,14.15
2022-10-20T14:55:32.226Z,13.97
2022-10-20T15:00:35.685Z,13.80
2022-10-20T15:05:42.196Z,13.72
2022-10-20T15:10:43.934Z,13.57
2022-10-20T15:15:46.215Z,13.40
2022-10-20T15:20:48.302Z,13.24
2022-10-20T15:26:03.210Z,13.13
2022-10-20T15:31:22.245Z,12.96
2022-10-20T15:36:33.274Z,12.86
2022-10-20T15:41:35.217Z,12.77
2022-10-20T15:46:36.851Z,12.71
2022-10-20T15:51:40.260Z,12.64
2022-10-20T15:56:41.940Z,12.60
2022-10-20T16:01:43.669Z,12.56
2022-10-20T16:06:45.377Z,12.52
2022-10-20T16:11:47.146Z,12.45
2022-10-20T16:16:48.805Z,12.43
2022-10-20T16:21:50.448Z,12.37
2022-10-20T16:26:52.795Z,12.34
2022-10-20T16:31:54.627Z,12.29
2022-10-20T16:36:56.309Z,12.26
2022-10-20T16:41:58.100Z,12.22
2022-10-20T16:46:59.758Z,12.17
2022-10-20T16:52:01.642Z,12.15
2022-10-20T16:57:04.037Z,12.14
2022-10-20T17:02:05.763Z,12.12
2022-10-20T17:07:08.674Z,12.11
2022-10-20T17:12:10.544Z,12.10
2022-10-20T17:17:12.185Z,12.10
2022-10-20T17:22:13.831Z,12.13
2022-10-20T17:27:15.469Z,12.13
2022-10-20T17:32:18.277Z,12.15
2022-10-20T17:37:20.227Z,12.15
2022-10-20T17:42:22.111Z,12.16
2022-10-20T17:47:24.238Z,12.13
2022-10-20T17:52:26.242Z,12.11
2022-10-20T17:57:30.001Z,12.09
2022-10-20T18:02:32.046Z,12.08
2022-10-20T18:07:33.694Z,12.06
2022-10-20T18:12:35.753Z,12.04
2022-10-20T18:17:37.739Z,11.95
2022-10-20T18:22:39.783Z,11.89
2022-10-20T18:27:41.731Z,11.85
2022-10-20T18:32:43.470Z,11.80
2022-10-20T18:37:45.105Z,11.78
2022-10-20T18:42:46.780Z,11.74
2022-10-20T18:47:48.428Z,11.69
2022-10-20T18:52:50.061Z,11.62
2022-10-20T18:57:52.151Z,11.54
2022-10-20T19:02:55.826Z,11.49
2022-10-20T19:07:59.639Z,11.38
2022-10-20T19:13:01.402Z,11.32
2022-10-20T19:18:03.157Z,11.22
2022-10-20T19:23:04.945Z,11.11
2022-10-20T19:28:06.608Z,11.01
2022-10-20T19:33:08.278Z,10.90
2022-10-20T19:38:09.959Z,10.79
2022-10-20T19:43:11.708Z,10.74
2022-10-20T19:48:13.667Z,10.71
2022-10-20T19:53:15.378Z,10.70
2022-10-20T19:58:17.466Z,10.64
2022-10-20T20:03:19.138Z,10.60
2022-10-20T20:08:20.868Z,10.57
2022-10-20T20:13:23.027Z,10.56
2022-10-20T20:18:25.062Z,10.58
2022-10-20T20:23:40.753Z,10.60
2022-10-20T20:28:48.577Z,10.59
2022-10-20T20:33:50.301Z,10.58
2022-10-20T20:38:53.808Z,10.56
2022-10-20T20:43:58.282Z,10.53
2022-10-20T20:49:00.926Z,10.50
2022-10-20T20:54:03.057Z,10.48
2022-10-20T20:59:04.851Z,10.47
2022-10-20T21:04:10.244Z,10.41
2022-10-20T21:09:12.137Z,10.39
2022-10-20T21:14:13.853Z,10.35
2022-10-20T21:19:15.522Z,10.30
2022-10-20T21:24:17.567Z,10.26
2022-10-20T21:29:19.272Z,10.26
2022-10-20T21:34:20.999Z,10.23
2022-10-20T21:39:22.841Z,10.20
2022-10-20T21:44:24.616Z,10.18
2022-10-20T21:49:26.341Z,10.16
2022-10-20T21:54:28.379Z,10.15
2022-10-20T21:59:30.300Z,10.16
2022-10-20T22:04:32.042Z,10.17
2022-10-20T22:09:33.772Z,10.18
2022-10-20T22:14:35.470Z,10.17
2022-10-20T22:19:37.179Z,10.16
2022-10-20T22:24:38.874Z,10.14
2022-10-20T22:29:40.558Z,10.11
2022-10-20T22:34:42.216Z,10.07
2022-10-20T22:39:43.892Z,10.04
2022-10-20T22:44:47.680Z,10.03
2022-10-20T22:49:49.318Z,10.05
2022-10-20T22:54:50.992Z,10.05
2022-10-20T22:59:52.743Z,10.02
2022-10-20T23:04:54.410Z,9.99
2022-10-20T23:09:56.085Z,9.95
2022-10-20T23:14:57.830Z,9.89
2022-10-20T23:19:59.534Z,9.86
2022-10-20T23:25:02.197Z,9.81
2022-10-20T23:30:04.150Z,9.73
2022-10-20T23:35:06.395Z,9.67
2022-10-20T23:40:08.490Z,9.62
2022-10-20T23:45:10.481Z,9.54
2022-10-20T23:50:12.175Z,9.50
2022-10-20T23:55:15.517Z,9.45
